Time,TemperatureF,DewpointF,PressureIn,WindDirection,WindDirectionDegrees,WindSpeedMPH,WindSpeedGustMPH,Humidity,HourlyPrecipIn,Conditions,Clouds,dailyrainin,SolarRadiationWatts/m^2,SoftwareType,DateUTC
2013-10-06 00:12:00,25.0,23.0,-100.00,North,3,0.0,2.0,92,0.00,,,0.00,0.000000,,2013-10-06 06:12:00,
2013-10-06 00:22:00,25.0,23.0,-100.00,North,3,0.0,2.0,92,0.00,,,0.00,0.000000,,2013-10-06 06:22:00,
2013-10-06 00:32:00,25.0,23.0,-100.00,North,3,0.0,2.0,92,0.00,,,0.00,0.000000,,2013-10-06 06:32:00,
2013-10-06 00:42:00,25.0,23.0,-100.00,North,3,0.0,2.0,92,0.00,,,0.00,0.000000,,2013-10-06 06:42:00,
2013-10-06 01:11:00,24.0,22.0,-100.00,North,350,1.0,2.0,93,0.00,,,0.00,0.000000,,2013-10-06 07:11:00,
2013-10-06 01:22:00,24.0,22.0,-100.00,North,350,1.0,2.0,93,0.00,,,0.00,0.000000,,2013-10-06 07:22:00,
2013-10-06 01:32:00,24.0,22.0,-100.00,North,350,1.0,2.0,93,0.00,,,0.00,0.000000,,2013-10-06 07:32:00,
2013-10-06 01:42:00,24.0,22.0,-100.00,North,350,1.0,2.0,93,0.00,,,0.00,0.000000,,2013-10-06 07:42:00,
2013-10-06 02:11:00,23.0,21.0,-100.00,North,354,0.0,2.0,93,0.00,,,0.00,0.000000,,2013-10-06 08:11:00,
2013-10-06 02:22:00,23.0,21.0,-100.00,North,354,0.0,2.0,93,0.00,,,0.00,0.000000,,2013-10-06 08:22:00,
2013-10-06 02:32:00,23.0,21.0,-100.00,North,354,0.0,2.0,93,0.00,,,0.00,0.000000,,2013-10-06 08:32:00,
2013-10-06 02:42:00,23.0,21.0,-100.00,North,354,0.0,2.0,93,0.00,,,0.00,0.000000,,2013-10-06 08:42:00,
2013-10-06 03:11:00,23.0,21.0,-100.00,North,7,1.0,2.0,93,0.00,,,0.00,0.000000,,2013-10-06 09:11:00,
2013-10-06 03:22:00,23.0,21.0,-100.00,North,7,1.0,2.0,93,0.00,,,0.00,0.000000,,2013-10-06 09:22:00,
2013-10-06 03:33:00,23.0,21.0,-100.00,North,7,1.0,2.0,93,0.00,,,0.00,0.000000,,2013-10-06 09:33:00,
2013-10-06 03:43:00,23.0,21.0,-100.00,North,7,1.0,2.0,93,0.00,,,0.00,0.000000,,2013-10-06 09:43:00,
2013-10-06 04:13:00,22.0,20.0,-100.00,NNW,340,1.0,2.0,93,0.00,,,0.00,0.000000,,2013-10-06 10:13:00,
2013-10-06 04:23:00,22.0,20.0,-100.00,NNW,340,1.0,2.0,93,0.00,,,0.00,0.000000,,2013-10-06 10:23:00,
2013-10-06 04:32:00,22.0,20.0,-100.00,NNW,340,1.0,2.0,93,0.00,,,0.00,0.000000,,2013-10-06 10:32:00,
2013-10-06 04:42:00,22.0,20.0,-100.00,NNW,340,1.0,2.0,93,0.00,,,0.00,0.000000,,2013-10-06 10:42:00,
2013-10-06 05:12:00,22.0,20.0,-100.00,North,358,2.0,2.0,93,0.00,,,0.00,0.000000,,2013-10-06 11:12:00,
2013-10-06 05:21:00,22.0,20.0,-100.00,North,358,2.0,2.0,93,0.00,,,0.00,0.000000,,2013-10-06 11:21:00,
2013-10-06 05:33:00,22.0,20.0,-100.00,North,358,2.0,2.0,93,0.00,,,0.00,0.000000,,2013-10-06 11:33:00,
2013-10-06 05:42:00,22.0,20.0,-100.00,North,358,2.0,2.0,93,0.00,,,0.00,0.000000,,2013-10-06 11:42:00,
2013-10-06 06:12:00,21.0,19.0,-100.00,North,0,1.0,2.0,93,0.00,,,0.00,0.000000,,2013-10-06 12:12:00,
2013-10-06 06:22:00,21.0,19.0,-100.00,North,0,1.0,2.0,93,0.00,,,0.00,0.000000,,2013-10-06 12:22:00,
2013-10-06 06:32:00,21.0,19.0,-100.00,North,0,1.0,2.0,93,0.00,,,0.00,0.000000,,2013-10-06 12:32:00,
2013-10-06 06:42:00,21.0,19.0,-100.00,North,0,1.0,2.0,93,0.00,,,0.00,0.000000,,2013-10-06 12:42:00,
2013-10-06 07:11:00,21.0,19.0,-100.00,North,8,2.0,3.0,93,0.00,,,0.00,0.000000,,2013-10-06 13:11:00,
2013-10-06 07:21:00,21.0,19.0,-100.00,North,8,2.0,3.0,93,0.00,,,0.00,0.000000,,2013-10-06 13:21:00,
2013-10-06 07:32:00,21.0,19.0,-100.00,North,8,2.0,3.0,93,0.00,,,0.00,0.000000,,2013-10-06 13:32:00,
2013-10-06 07:42:00,21.0,19.0,-100.00,North,8,2.0,3.0,93,0.00,,,0.00,0.000000,,2013-10-06 13:42:00,
2013-10-06 08:11:00,21.0,19.0,-100.00,North,5,1.0,3.0,93,0.00,,,0.00,4.000000,,2013-10-06 14:11:00,
2013-10-06 08:22:00,21.0,19.0,-100.00,North,5,1.0,3.0,93,0.00,,,0.00,4.000000,,2013-10-06 14:22:00,
2013-10-06 08:32:00,21.0,19.0,-100.00,North,5,1.0,3.0,93,0.00,,,0.00,4.000000,,2013-10-06 14:32:00,
2013-10-06 08:42:00,21.0,19.0,-100.00,North,5,1.0,3.0,93,0.00,,,0.00,4.000000,,2013-10-06 14:42:00,
2013-10-06 09:11:00,25.0,24.0,-100.00,NNE,28,2.0,3.0,94,0.00,,,0.00,26.000000,,2013-10-06 15:11:00,
2013-10-06 09:22:00,25.0,24.0,-100.00,NNE,28,2.0,3.0,94,0.00,,,0.00,26.000000,,2013-10-06 15:22:00,
2013-10-06 09:34:00,25.0,24.0,-100.00,NNE,28,2.0,3.0,94,0.00,,,0.00,26.000000,,2013-10-06 15:34:00,
2013-10-06 09:43:00,25.0,24.0,-100.00,NNE,28,2.0,3.0,94,0.00,,,0.00,26.000000,,2013-10-06 15:43:00,
2013-10-06 10:23:00,38.0,30.0,-100.00,ENE,73,2.0,5.0,74,0.00,,,0.00,154.000000,,2013-10-06 16:23:00,
2013-10-06 10:33:00,38.0,30.0,-100.00,ENE,73,2.0,5.0,74,0.00,,,0.00,154.000000,,2013-10-06 16:33:00,
2013-10-06 10:42:00,38.0,30.0,-100.00,ENE,73,2.0,5.0,74,0.00,,,0.00,154.000000,,2013-10-06 16:42:00,
2013-10-06 11:22:00,45.0,27.0,-100.00,SSE,156,1.0,5.0,50,0.00,,,0.00,283.000000,,2013-10-06 17:22:00,
2013-10-06 11:33:00,45.0,27.0,-100.00,SSE,156,1.0,5.0,50,0.00,,,0.00,283.000000,,2013-10-06 17:33:00,
2013-10-06 11:42:00,45.0,27.0,-100.00,SSE,156,1.0,5.0,50,0.00,,,0.00,283.000000,,2013-10-06 17:42:00,
2013-10-06 12:21:00,50.0,26.0,-100.00,SSW,192,3.0,6.0,39,0.00,,,0.00,536.000000,,2013-10-06 18:21:00,
2013-10-06 12:32:00,50.0,26.0,-100.00,SSW,192,3.0,6.0,39,0.00,,,0.00,536.000000,,2013-10-06 18:32:00,
2013-10-06 12:42:00,50.0,26.0,-100.00,SSW,192,3.0,6.0,39,0.00,,,0.00,536.000000,,2013-10-06 18:42:00,
2013-10-06 13:11:00,52.0,27.0,-100.00,SW,218,3.0,8.0,38,0.00,,,0.00,522.000000,,2013-10-06 19:11:00,
2013-10-06 13:22:00,52.0,27.0,-100.00,SW,218,3.0,8.0,38,0.00,,,0.00,522.000000,,2013-10-06 19:22:00,
2013-10-06 13:32:00,52.0,27.0,-100.00,SW,218,3.0,8.0,38,0.00,,,0.00,522.000000,,2013-10-06 19:32:00,
2013-10-06 13:42:00,52.0,27.0,-100.00,SW,218,3.0,8.0,38,0.00,,,0.00,522.000000,,2013-10-06 19:42:00,
2013-10-06 14:11:00,53.0,25.0,-100.00,West,268,3.0,8.0,34,0.00,,,0.00,403.000000,,2013-10-06 20:11:00,
2013-10-06 14:22:00,53.0,25.0,-100.00,West,268,3.0,8.0,34,0.00,,,0.00,403.000000,,2013-10-06 20:22:00,
2013-10-06 14:32:00,53.0,25.0,-100.00,West,268,3.0,8.0,34,0.00,,,0.00,403.000000,,2013-10-06 20:32:00,
2013-10-06 14:42:00,53.0,25.0,-100.00,West,268,3.0,8.0,34,0.00,,,0.00,403.000000,,2013-10-06 20:42:00,
2013-10-06 15:11:00,56.0,24.0,-100.00,West,264,4.0,9.0,29,0.00,,,0.00,633.000000,,2013-10-06 21:11:00,
2013-10-06 15:22:00,56.0,24.0,-100.00,West,264,4.0,9.0,29,0.00,,,0.00,633.000000,,2013-10-06 21:22:00,
2013-10-06 15:34:00,56.0,24.0,-100.00,West,264,4.0,9.0,29,0.00,,,0.00,633.000000,,2013-10-06 21:34:00,
2013-10-06 15:44:00,56.0,24.0,-100.00,West,264,4.0,9.0,29,0.00,,,0.00,633.000000,,2013-10-06 21:44:00,
2013-10-06 16:13:00,56.0,26.0,-100.00,WSW,256,4.0,10.0,31,0.00,,,0.00,553.000000,,2013-10-06 22:13:00,
2013-10-06 16:24:00,56.0,26.0,-100.00,WSW,256,4.0,10.0,31,0.00,,,0.00,553.000000,,2013-10-06 22:24:00,
2013-10-06 16:33:00,56.0,26.0,-100.00,WSW,256,4.0,10.0,31,0.00,,,0.00,553.000000,,2013-10-06 22:33:00,
2013-10-06 16:42:00,56.0,26.0,-100.00,WSW,256,4.0,10.0,31,0.00,,,0.00,553.000000,,2013-10-06 22:42:00,
2013-10-06 17:22:00,55.0,26.0,-100.00,WSW,246,3.0,9.0,33,0.00,,,0.00,341.000000,,2013-10-06 23:22:00,
2013-10-06 17:34:00,55.0,26.0,-100.00,WSW,246,3.0,9.0,33,0.00,,,0.00,341.000000,,2013-10-06 23:34:00,
2013-10-06 17:42:00,55.0,26.0,-100.00,WSW,246,3.0,9.0,33,0.00,,,0.00,341.000000,,2013-10-06 23:42:00,
2013-10-06 18:12:00,54.0,27.0,-100.00,SW,230,2.0,6.0,35,0.00,,,0.00,43.000000,,2013-10-07 00:12:00,
2013-10-06 18:22:00,54.0,27.0,-100.00,SW,230,2.0,6.0,35,0.00,,,0.00,43.000000,,2013-10-07 00:22:00,
2013-10-06 18:32:00,54.0,27.0,-100.00,SW,230,2.0,6.0,35,0.00,,,0.00,43.000000,,2013-10-07 00:32:00,
2013-10-06 18:42:00,54.0,27.0,-100.00,SW,230,2.0,6.0,35,0.00,,,0.00,43.000000,,2013-10-07 00:42:00,
2013-10-06 19:22:00,46.0,29.0,-100.00,North,350,0.0,3.0,52,0.00,,,0.00,22.000000,,2013-10-07 01:22:00,
2013-10-06 19:32:00,46.0,29.0,-100.00,North,350,0.0,3.0,52,0.00,,,0.00,22.000000,,2013-10-07 01:32:00,
2013-10-06 19:42:00,46.0,29.0,-100.00,North,350,0.0,3.0,52,0.00,,,0.00,22.000000,,2013-10-07 01:42:00,
2013-10-06 20:22:00,36.0,28.0,-100.00,North,10,1.0,2.0,72,0.00,,,0.00,2.000000,,2013-10-07 02:22:00,
2013-10-06 20:32:00,36.0,28.0,-100.00,North,10,1.0,2.0,72,0.00,,,0.00,2.000000,,2013-10-07 02:32:00,
2013-10-06 20:42:00,36.0,28.0,-100.00,North,10,1.0,2.0,72,0.00,,,0.00,2.000000,,2013-10-07 02:42:00,
2013-10-06 21:12:00,32.0,27.0,-100.00,North,359,1.0,2.0,83,0.00,,,0.00,0.000000,,2013-10-07 03:12:00,
2013-10-06 21:22:00,32.0,27.0,-100.00,North,359,1.0,2.0,83,0.00,,,0.00,0.000000,,2013-10-07 03:22:00,
2013-10-06 21:34:00,32.0,27.0,-100.00,North,359,1.0,2.0,83,0.00,,,0.00,0.000000,,2013-10-07 03:34:00,
2013-10-06 21:44:00,32.0,27.0,-100.00,North,359,1.0,2.0,83,0.00,,,0.00,0.000000,,2013-10-07 03:44:00,
2013-10-06 22:24:00,29.0,26.0,-100.00,North,354,1.0,2.0,87,0.00,,,0.00,0.000000,,2013-10-07 04:24:00,
2013-10-06 22:34:00,29.0,26.0,-100.00,North,354,1.0,2.0,87,0.00,,,0.00,0.000000,,2013-10-07 04:34:00,
2013-10-06 22:44:00,29.0,26.0,-100.00,North,354,1.0,2.0,87,0.00,,,0.00,0.000000,,2013-10-07 04:44:00,
2013-10-06 23:13:00,27.0,24.0,-100.00,North,357,1.0,3.0,89,0.00,,,0.00,0.000000,,2013-10-07 05:13:00,
2013-10-06 23:22:00,27.0,24.0,-100.00,North,357,1.0,3.0,89,0.00,,,0.00,0.000000,,2013-10-07 05:22:00,
2013-10-06 23:34:00,27.0,24.0,-100.00,North,357,1.0,3.0,89,0.00,,,0.00,0.000000,,2013-10-07 05:34:00,
2013-10-06 23:43:00,27.0,24.0,-100.00,North,357,1.0,3.0,89,0.00,,,0.00,0.000000,,2013-10-07 05:43:00,